sensor_id;sensor_type;location;lat;lon;timestamp;temperature;humidity
25320;DHT22;13256;49.012;8.610;2023-07-09T00:02:26;20.90;99.90
25320;DHT22;13256;49.012;8.610;2023-07-09T00:05:00;20.90;99.90
25320;DHT22;13256;49.012;8.610;2023-07-09T00:07:30;20.90;99.90
25320;DHT22;13256;49.012;8.610;2023-07-09T00:09:59;20.80;99.90
25320;DHT22;13256;49.012;8.610;2023-07-09T00:12:28;20.80;99.90
25320;DHT22;13256;49.012;8.610;2023-07-09T00:14:55;20.70;99.90
25320;DHT22;13256;49.012;8.610;2023-07-09T00:17:29;20.60;99.90
25320;DHT22;13256;49.012;8.610;2023-07-09T00:20:00;20.50;99.90
25320;DHT22;13256;49.012;8.610;2023-07-09T00:22:27;20.50;99.90
25320;DHT22;13256;49.012;8.610;2023-07-09T00:25:21;20.40;99.90
25320;DHT22;13256;49.012;8.610;2023-07-09T00:27:48;20.50;99.90
25320;DHT22;13256;49.012;8.610;2023-07-09T00:30:22;20.40;99.90
25320;DHT22;13256;49.012;8.610;2023-07-09T00:32:50;20.40;99.90
25320;DHT22;13256;49.012;8.610;2023-07-09T01:05:54;19.90;99.90
25320;DHT22;13256;49.012;8.610;2023-07-09T01:09:13;19.90;99.90
25320;DHT22;13256;49.012;8.610;2023-07-09T01:11:41;19.90;99.90
25320;DHT22;13256;49.012;8.610;2023-07-09T01:37:56;19.40;99.90
25320;DHT22;13256;49.012;8.610;2023-07-09T01:40:25;19.30;99.90
25320;DHT22;13256;49.012;8.610;2023-07-09T01:43:19;19.40;99.90
25320;DHT22;13256;49.012;8.610;2023-07-09T01:45:53;19.40;99.90
25320;DHT22;13256;49.012;8.610;2023-07-09T01:48:29;19.40;99.90
25320;DHT22;13256;49.012;8.610;2023-07-09T01:50:57;19.40;99.90
25320;DHT22;13256;49.012;8.610;2023-07-09T01:53:26;19.30;99.90
25320;DHT22;13256;49.012;8.610;2023-07-09T01:56:00;19.30;99.90
25320;DHT22;13256;49.012;8.610;2023-07-09T01:58:32;19.30;99.90
25320;DHT22;13256;49.012;8.610;2023-07-09T02:00:59;19.20;99.90
25320;DHT22;13256;49.012;8.610;2023-07-09T02:03:31;19.20;99.90
25320;DHT22;13256;49.012;8.610;2023-07-09T02:06:03;19.20;99.90
25320;DHT22;13256;49.012;8.610;2023-07-09T02:08:39;19.10;99.90
25320;DHT22;13256;49.012;8.610;2023-07-09T02:11:06;19.10;99.90
25320;DHT22;13256;49.012;8.610;2023-07-09T02:14:02;19.10;99.90
25320;DHT22;13256;49.012;8.610;2023-07-09T02:16:32;19.00;99.90
25320;DHT22;13256;49.012;8.610;2023-07-09T02:19:02;19.00;99.90
25320;DHT22;13256;49.012;8.610;2023-07-09T02:21:38;19.00;99.90
25320;DHT22;13256;49.012;8.610;2023-07-09T02:24:07;19.00;99.90
25320;DHT22;13256;49.012;8.610;2023-07-09T02:26:39;19.00;99.90
25320;DHT22;13256;49.012;8.610;2023-07-09T02:29:07;19.00;99.90
25320;DHT22;13256;49.012;8.610;2023-07-09T02:31:35;18.90;99.90
25320;DHT22;13256;49.012;8.610;2023-07-09T02:34:02;18.80;99.90
25320;DHT22;13256;49.012;8.610;2023-07-09T02:36:58;18.80;99.90
25320;DHT22;13256;49.012;8.610;2023-07-09T02:39:27;18.80;99.90
25320;DHT22;13256;49.012;8.610;2023-07-09T02:49:07;18.70;99.90
25320;DHT22;13256;49.012;8.610;2023-07-09T02:51:35;18.70;99.90
25320;DHT22;13256;49.012;8.610;2023-07-09T02:54:34;18.70;99.90
25320;DHT22;13256;49.012;8.610;2023-07-09T02:57:04;18.70;99.90
25320;DHT22;13256;49.012;8.610;2023-07-09T02:59:57;18.60;99.90
25320;DHT22;13256;49.012;8.610;2023-07-09T03:02:25;18.60;99.90
25320;DHT22;13256;49.012;8.610;2023-07-09T03:05:23;18.50;99.90
25320;DHT22;13256;49.012;8.610;2023-07-09T03:07:51;18.50;99.90
25320;DHT22;13256;49.012;8.610;2023-07-09T03:10:19;18.50;99.90
25320;DHT22;13256;49.012;8.610;2023-07-09T03:12:49;18.50;99.90
25320;DHT22;13256;49.012;8.610;2023-07-09T03:15:16;18.60;99.90
25320;DHT22;13256;49.012;8.610;2023-07-09T03:17:52;18.60;99.90
25320;DHT22;13256;49.012;8.610;2023-07-09T03:20:19;18.60;99.90
25320;DHT22;13256;49.012;8.610;2023-07-09T03:22:51;18.50;99.90
25320;DHT22;13256;49.012;8.610;2023-07-09T03:25:17;18.50;99.90
25320;DHT22;13256;49.012;8.610;2023-07-09T03:28:13;18.50;99.90
25320;DHT22;13256;49.012;8.610;2023-07-09T03:30:45;18.40;99.90
25320;DHT22;13256;49.012;8.610;2023-07-09T03:33:41;18.40;99.90
25320;DHT22;13256;49.012;8.610;2023-07-09T03:36:37;18.40;99.90
25320;DHT22;13256;49.012;8.610;2023-07-09T03:39:04;18.40;99.90
25320;DHT22;13256;49.012;8.610;2023-07-09T03:42:23;18.40;99.90
25320;DHT22;13256;49.012;8.610;2023-07-09T03:44:53;18.30;99.90
25320;DHT22;13256;49.012;8.610;2023-07-09T03:47:22;18.30;99.90
25320;DHT22;13256;49.012;8.610;2023-07-09T03:53:14;18.30;99.90
25320;DHT22;13256;49.012;8.610;2023-07-09T03:55:45;18.30;99.90
25320;DHT22;13256;49.012;8.610;2023-07-09T03:58:39;18.20;99.90
25320;DHT22;13256;49.012;8.610;2023-07-09T04:01:07;18.20;99.90
25320;DHT22;13256;49.012;8.610;2023-07-09T04:03:37;18.20;99.90
25320;DHT22;13256;49.012;8.610;2023-07-09T04:06:04;18.20;99.90
25320;DHT22;13256;49.012;8.610;2023-07-09T04:08:37;18.10;99.90
25320;DHT22;13256;49.012;8.610;2023-07-09T04:11:05;18.10;99.90
25320;DHT22;13256;49.012;8.610;2023-07-09T04:13:36;18.10;99.90
25320;DHT22;13256;49.012;8.610;2023-07-09T04:16:08;18.00;99.90
25320;DHT22;13256;49.012;8.610;2023-07-09T04:18:42;18.00;99.90
25320;DHT22;13256;49.012;8.610;2023-07-09T04:21:11;17.90;99.90
25320;DHT22;13256;49.012;8.610;2023-07-09T04:24:06;17.90;99.90
25320;DHT22;13256;49.012;8.610;2023-07-09T04:26:36;18.00;99.90
25320;DHT22;13256;49.012;8.610;2023-07-09T04:39:35;18.30;99.90
25320;DHT22;13256;49.012;8.610;2023-07-09T04:42:06;18.30;99.90
25320;DHT22;13256;49.012;8.610;2023-07-09T04:44:37;18.40;99.90
25320;DHT22;13256;49.012;8.610;2023-07-09T04:47:04;18.50;99.90
25320;DHT22;13256;49.012;8.610;2023-07-09T04:49:33;18.50;99.90
25320;DHT22;13256;49.012;8.610;2023-07-09T04:52:01;18.50;99.90
25320;DHT22;13256;49.012;8.610;2023-07-09T04:54:31;18.50;99.90
25320;DHT22;13256;49.012;8.610;2023-07-09T04:57:01;18.60;99.90
25320;DHT22;13256;49.012;8.610;2023-07-09T04:59:33;18.60;99.90
25320;DHT22;13256;49.012;8.610;2023-07-09T05:02:00;18.70;99.90
25320;DHT22;13256;49.012;8.610;2023-07-09T05:05:45;18.80;99.90
25320;DHT22;13256;49.012;8.610;2023-07-09T05:11:14;19.10;99.90
25320;DHT22;13256;49.012;8.610;2023-07-09T05:13:45;19.20;99.90
25320;DHT22;13256;49.012;8.610;2023-07-09T05:16:18;19.30;99.90
25320;DHT22;13256;49.012;8.610;2023-07-09T05:18:48;19.40;99.90
25320;DHT22;13256;49.012;8.610;2023-07-09T05:22:09;19.50;99.90
25320;DHT22;13256;49.012;8.610;2023-07-09T05:27:59;19.70;99.90
25320;DHT22;13256;49.012;8.610;2023-07-09T05:30:27;19.80;99.90
25320;DHT22;13256;49.012;8.610;2023-07-09T05:36:18;20.00;99.90
25320;DHT22;13256;49.012;8.610;2023-07-09T05:38:52;20.10;99.90
25320;DHT22;13256;49.012;8.610;2023-07-09T06:02:44;20.90;99.90
25320;DHT22;13256;49.012;8.610;2023-07-09T06:05:11;21.00;99.90
25320;DHT22;13256;49.012;8.610;2023-07-09T06:08:04;21.10;99.90
25320;DHT22;13256;49.012;8.610;2023-07-09T06:10:32;21.20;99.90
25320;DHT22;13256;49.012;8.610;2023-07-09T06:13:06;21.30;99.90
25320;DHT22;13256;49.012;8.610;2023-07-09T06:15:36;21.40;99.90
25320;DHT22;13256;49.012;8.610;2023-07-09T06:18:03;21.50;99.90
25320;DHT22;13256;49.012;8.610;2023-07-09T06:20:30;21.60;99.90
25320;DHT22;13256;49.012;8.610;2023-07-09T06:23:03;21.70;99.90
25320;DHT22;13256;49.012;8.610;2023-07-09T06:25:29;21.80;99.90
25320;DHT22;13256;49.012;8.610;2023-07-09T06:28:26;22.00;99.90
25320;DHT22;13256;49.012;8.610;2023-07-09T06:31:04;22.30;99.90
25320;DHT22;13256;49.012;8.610;2023-07-09T06:36:58;22.50;99.90
25320;DHT22;13256;49.012;8.610;2023-07-09T06:39:26;22.70;99.90
25320;DHT22;13256;49.012;8.610;2023-07-09T06:45:23;23.00;99.90
25320;DHT22;13256;49.012;8.610;2023-07-09T06:47:51;23.20;99.90
25320;DHT22;13256;49.012;8.610;2023-07-09T06:50:49;23.30;99.90
25320;DHT22;13256;49.012;8.610;2023-07-09T06:53:17;23.60;99.90
25320;DHT22;13256;49.012;8.610;2023-07-09T06:55:46;23.70;99.90
25320;DHT22;13256;49.012;8.610;2023-07-09T06:58:16;23.90;99.90
25320;DHT22;13256;49.012;8.610;2023-07-09T07:01:10;24.10;99.90
25320;DHT22;13256;49.012;8.610;2023-07-09T07:03:38;24.30;99.90
25320;DHT22;13256;49.012;8.610;2023-07-09T07:09:27;24.60;99.90
25320;DHT22;13256;49.012;8.610;2023-07-09T07:11:55;24.80;99.90
25320;DHT22;13256;49.012;8.610;2023-07-09T07:14:53;25.00;99.90
25320;DHT22;13256;49.012;8.610;2023-07-09T07:17:23;25.20;99.90
25320;DHT22;13256;49.012;8.610;2023-07-09T07:20:19;25.40;99.90
25320;DHT22;13256;49.012;8.610;2023-07-09T07:22:50;25.60;99.90
25320;DHT22;13256;49.012;8.610;2023-07-09T07:25:17;25.80;99.90
25320;DHT22;13256;49.012;8.610;2023-07-09T07:27:45;26.10;99.90
25320;DHT22;13256;49.012;8.610;2023-07-09T07:30:15;26.20;99.90
25320;DHT22;13256;49.012;8.610;2023-07-09T07:32:49;26.50;99.90
25320;DHT22;13256;49.012;8.610;2023-07-09T07:38:56;26.80;99.90
25320;DHT22;13256;49.012;8.610;2023-07-09T07:41:25;27.00;99.90
25320;DHT22;13256;49.012;8.610;2023-07-09T07:51:53;27.60;99.90
25320;DHT22;13256;49.012;8.610;2023-07-09T07:57:48;28.10;99.90
25320;DHT22;13256;49.012;8.610;2023-07-09T08:00:17;28.30;99.90
25320;DHT22;13256;49.012;8.610;2023-07-09T08:06:32;28.60;99.90
25320;DHT22;13256;49.012;8.610;2023-07-09T08:09:00;28.80;99.90
25320;DHT22;13256;49.012;8.610;2023-07-09T08:11:57;29.00;99.90
25320;DHT22;13256;49.012;8.610;2023-07-09T08:14:25;29.20;99.90
25320;DHT22;13256;49.012;8.610;2023-07-09T08:16:56;29.40;99.90
25320;DHT22;13256;49.012;8.610;2023-07-09T08:19:28;29.50;99.90
25320;DHT22;13256;49.012;8.610;2023-07-09T08:21:58;29.60;99.90
25320;DHT22;13256;49.012;8.610;2023-07-09T08:24:31;29.70;99.80
25320;DHT22;13256;49.012;8.610;2023-07-09T08:27:00;29.90;99.20
25320;DHT22;13256;49.012;8.610;2023-07-09T08:29:31;30.10;99.30
25320;DHT22;13256;49.012;8.610;2023-07-09T08:32:02;30.30;99.80
25320;DHT22;13256;49.012;8.610;2023-07-09T08:34:29;30.50;98.00
25320;DHT22;13256;49.012;8.610;2023-07-09T08:36:57;30.70;98.10
25320;DHT22;13256;49.012;8.610;2023-07-09T08:39:24;30.90;96.80
25320;DHT22;13256;49.012;8.610;2023-07-09T08:41:59;31.10;95.90
25320;DHT22;13256;49.012;8.610;2023-07-09T08:56:14;32.00;93.20
25320;DHT22;13256;49.012;8.610;2023-07-09T08:58:43;32.30;91.70
25320;DHT22;13256;49.012;8.610;2023-07-09T09:01:19;32.50;91.40
25320;DHT22;13256;49.012;8.610;2023-07-09T09:04:03;32.60;92.00
25320;DHT22;13256;49.012;8.610;2023-07-09T09:06:36;32.90;90.40
25320;DHT22;13256;49.012;8.610;2023-07-09T09:10:08;32.90;90.00
25320;DHT22;13256;49.012;8.610;2023-07-09T09:12:16;33.00;88.20
25320;DHT22;13256;49.012;8.610;2023-07-09T09:15:10;33.30;86.50
25320;DHT22;13256;49.012;8.610;2023-07-09T09:17:41;33.40;84.70
25320;DHT22;13256;49.012;8.610;2023-07-09T09:26:47;33.60;80.20
25320;DHT22;13256;49.012;8.610;2023-07-09T09:29:43;33.90;78.30
25320;DHT22;13256;49.012;8.610;2023-07-09T09:32:22;34.20;76.60
25320;DHT22;13256;49.012;8.610;2023-07-09T09:34:53;34.40;75.20
25320;DHT22;13256;49.012;8.610;2023-07-09T09:37:55;34.60;75.30
25320;DHT22;13256;49.012;8.610;2023-07-09T09:41:23;34.70;75.50
25320;DHT22;13256;49.012;8.610;2023-07-09T10:52:51;37.70;54.40
25320;DHT22;13256;49.012;8.610;2023-07-09T11:11:15;38.50;52.00
25320;DHT22;13256;49.012;8.610;2023-07-09T11:23:49;38.80;49.10
25320;DHT22;13256;49.012;8.610;2023-07-09T12:05:03;39.80;49.30
25320;DHT22;13256;49.012;8.610;2023-07-09T12:10:25;40.00;43.80
25320;DHT22;13256;49.012;8.610;2023-07-09T12:25:25;39.70;41.70
25320;DHT22;13256;49.012;8.610;2023-07-09T12:27:57;39.80;42.10
25320;DHT22;13256;49.012;8.610;2023-07-09T12:30:36;39.90;41.30
25320;DHT22;13256;49.012;8.610;2023-07-09T12:33:22;40.00;42.10
25320;DHT22;13256;49.012;8.610;2023-07-09T12:45:20;40.10;38.60
25320;DHT22;13256;49.012;8.610;2023-07-09T12:53:43;40.20;38.50
25320;DHT22;13256;49.012;8.610;2023-07-09T12:56:15;40.30;39.70
25320;DHT22;13256;49.012;8.610;2023-07-09T12:58:43;40.30;38.90
25320;DHT22;13256;49.012;8.610;2023-07-09T13:07:04;40.80;38.70
25320;DHT22;13256;49.012;8.610;2023-07-09T13:15:56;40.50;37.60
25320;DHT22;13256;49.012;8.610;2023-07-09T13:33:58;40.30;37.70
25320;DHT22;13256;49.012;8.610;2023-07-09T13:36:29;40.40;38.20
25320;DHT22;13256;49.012;8.610;2023-07-09T13:38:57;40.40;37.70
25320;DHT22;13256;49.012;8.610;2023-07-09T13:44:17;39.80;38.60
25320;DHT22;13256;49.012;8.610;2023-07-09T14:19:20;40.40;38.30
25320;DHT22;13256;49.012;8.610;2023-07-09T17:57:55;34.80;59.50
25320;DHT22;13256;49.012;8.610;2023-07-09T18:00:29;34.70;59.50
25320;DHT22;13256;49.012;8.610;2023-07-09T18:03:06;34.60;60.30
25320;DHT22;13256;49.012;8.610;2023-07-09T18:05:37;34.50;61.50
25320;DHT22;13256;49.012;8.610;2023-07-09T18:08:07;34.20;61.30
25320;DHT22;13256;49.012;8.610;2023-07-09T18:10:41;34.00;61.80
25320;DHT22;13256;49.012;8.610;2023-07-09T18:13:20;33.70;64.10
25320;DHT22;13256;49.012;8.610;2023-07-09T18:15:53;33.40;65.80
25320;DHT22;13256;49.012;8.610;2023-07-09T18:18:30;33.20;66.20
25320;DHT22;13256;49.012;8.610;2023-07-09T18:20:59;33.00;66.80
25320;DHT22;13256;49.012;8.610;2023-07-09T18:23:25;32.90;67.20
25320;DHT22;13256;49.012;8.610;2023-07-09T18:25:57;32.70;69.10
25320;DHT22;13256;49.012;8.610;2023-07-09T18:28:31;32.30;70.20
25320;DHT22;13256;49.012;8.610;2023-07-09T18:31:02;32.10;70.60
25320;DHT22;13256;49.012;8.610;2023-07-09T18:33:38;32.10;70.80
25320;DHT22;13256;49.012;8.610;2023-07-09T18:36:10;32.00;70.50
25320;DHT22;13256;49.012;8.610;2023-07-09T18:38:37;32.10;70.10
25320;DHT22;13256;49.012;8.610;2023-07-09T18:41:15;32.00;71.10
25320;DHT22;13256;49.012;8.610;2023-07-09T18:43:48;31.80;70.90
25320;DHT22;13256;49.012;8.610;2023-07-09T18:46:45;31.70;71.70
25320;DHT22;13256;49.012;8.610;2023-07-09T18:49:13;31.50;72.80
25320;DHT22;13256;49.012;8.610;2023-07-09T18:52:13;31.40;73.20
25320;DHT22;13256;49.012;8.610;2023-07-09T18:54:46;31.20;74.10
25320;DHT22;13256;49.012;8.610;2023-07-09T18:57:17;31.10;74.70
25320;DHT22;13256;49.012;8.610;2023-07-09T18:59:45;31.00;74.30
25320;DHT22;13256;49.012;8.610;2023-07-09T19:02:18;30.90;75.30
25320;DHT22;13256;49.012;8.610;2023-07-09T19:04:46;30.70;75.90
25320;DHT22;13256;49.012;8.610;2023-07-09T19:07:20;30.50;78.10
25320;DHT22;13256;49.012;8.610;2023-07-09T19:09:51;30.30;79.10
25320;DHT22;13256;49.012;8.610;2023-07-09T19:12:22;30.10;79.70
25320;DHT22;13256;49.012;8.610;2023-07-09T19:14:49;29.90;79.70
25320;DHT22;13256;49.012;8.610;2023-07-09T19:17:28;29.80;81.60
25320;DHT22;13256;49.012;8.610;2023-07-09T19:20:01;29.70;83.40
25320;DHT22;13256;49.012;8.610;2023-07-09T19:22:32;29.60;84.30
25320;DHT22;13256;49.012;8.610;2023-07-09T19:25:00;29.50;85.20
25320;DHT22;13256;49.012;8.610;2023-07-09T19:27:36;29.30;85.70
25320;DHT22;13256;49.012;8.610;2023-07-09T19:30:06;29.30;86.00
25320;DHT22;13256;49.012;8.610;2023-07-09T19:32:35;29.20;85.60
25320;DHT22;13256;49.012;8.610;2023-07-09T19:35:03;29.20;86.40
25320;DHT22;13256;49.012;8.610;2023-07-09T19:37:31;29.00;87.80
25320;DHT22;13256;49.012;8.610;2023-07-09T19:39:58;28.90;89.00
25320;DHT22;13256;49.012;8.610;2023-07-09T19:42:26;28.70;89.80
25320;DHT22;13256;49.012;8.610;2023-07-09T19:44:57;28.50;90.20
25320;DHT22;13256;49.012;8.610;2023-07-09T19:47:31;28.40;90.40
25320;DHT22;13256;49.012;8.610;2023-07-09T19:50:31;28.40;90.70
25320;DHT22;13256;49.012;8.610;2023-07-09T19:53:01;28.30;91.00
25320;DHT22;13256;49.012;8.610;2023-07-09T19:55:39;28.10;91.40
25320;DHT22;13256;49.012;8.610;2023-07-09T19:58:07;27.90;92.40
25320;DHT22;13256;49.012;8.610;2023-07-09T20:00:40;27.70;93.00
25320;DHT22;13256;49.012;8.610;2023-07-09T20:05:56;27.50;93.30
25320;DHT22;13256;49.012;8.610;2023-07-09T20:08:26;27.50;93.50
25320;DHT22;13256;49.012;8.610;2023-07-09T20:10:57;27.40;94.00
25320;DHT22;13256;49.012;8.610;2023-07-09T20:13:28;27.30;94.50
25320;DHT22;13256;49.012;8.610;2023-07-09T20:15:59;27.30;94.80
25320;DHT22;13256;49.012;8.610;2023-07-09T20:18:26;27.20;95.40
25320;DHT22;13256;49.012;8.610;2023-07-09T20:20:59;27.10;95.50
25320;DHT22;13256;49.012;8.610;2023-07-09T20:23:30;27.00;96.10
25320;DHT22;13256;49.012;8.610;2023-07-09T20:26:00;26.90;96.40
25320;DHT22;13256;49.012;8.610;2023-07-09T20:28:30;26.90;96.90
25320;DHT22;13256;49.012;8.610;2023-07-09T20:31:04;27.00;96.80
25320;DHT22;13256;49.012;8.610;2023-07-09T20:33:37;26.90;97.20
25320;DHT22;13256;49.012;8.610;2023-07-09T20:36:05;26.80;98.20
25320;DHT22;13256;49.012;8.610;2023-07-09T20:38:41;26.70;99.00
25320;DHT22;13256;49.012;8.610;2023-07-09T20:41:21;26.50;99.90
25320;DHT22;13256;49.012;8.610;2023-07-09T20:44:01;26.30;99.90
25320;DHT22;13256;49.012;8.610;2023-07-09T20:46:31;26.20;99.90
25320;DHT22;13256;49.012;8.610;2023-07-09T20:48:58;26.10;99.90
25320;DHT22;13256;49.012;8.610;2023-07-09T20:51:31;25.90;99.90
25320;DHT22;13256;49.012;8.610;2023-07-09T20:54:03;25.80;99.90
25320;DHT22;13256;49.012;8.610;2023-07-09T20:56:33;25.70;99.90
25320;DHT22;13256;49.012;8.610;2023-07-09T20:59:00;25.60;99.90
25320;DHT22;13256;49.012;8.610;2023-07-09T21:06:04;25.50;99.90
25320;DHT22;13256;49.012;8.610;2023-07-09T21:12:07;25.30;99.90
25320;DHT22;13256;49.012;8.610;2023-07-09T21:18:38;25.00;99.90
25320;DHT22;13256;49.012;8.610;2023-07-09T21:21:22;24.90;99.90
25320;DHT22;13256;49.012;8.610;2023-07-09T21:24:19;24.80;99.90
25320;DHT22;13256;49.012;8.610;2023-07-09T21:27:05;24.80;99.90
25320;DHT22;13256;49.012;8.610;2023-07-09T21:29:34;24.70;99.90
25320;DHT22;13256;49.012;8.610;2023-07-09T21:32:29;24.60;99.90
25320;DHT22;13256;49.012;8.610;2023-07-09T21:38:19;24.30;99.90
25320;DHT22;13256;49.012;8.610;2023-07-09T21:41:29;24.20;99.90
25320;DHT22;13256;49.012;8.610;2023-07-09T21:44:39;24.00;99.90
25320;DHT22;13256;49.012;8.610;2023-07-09T21:47:44;23.90;99.90
25320;DHT22;13256;49.012;8.610;2023-07-09T21:50:18;23.90;99.90
25320;DHT22;13256;49.012;8.610;2023-07-09T21:53:24;23.80;99.90
25320;DHT22;13256;49.012;8.610;2023-07-09T21:59:57;23.70;99.90
25320;DHT22;13256;49.012;8.610;2023-07-09T22:06:00;23.60;99.90
25320;DHT22;13256;49.012;8.610;2023-07-09T22:20:07;23.50;99.90
25320;DHT22;13256;49.012;8.610;2023-07-09T22:22:38;23.60;99.90
25320;DHT22;13256;49.012;8.610;2023-07-09T22:25:37;23.50;99.90
25320;DHT22;13256;49.012;8.610;2023-07-09T22:33:01;23.50;99.90
25320;DHT22;13256;49.012;8.610;2023-07-09T22:42:13;23.40;99.90
25320;DHT22;13256;49.012;8.610;2023-07-09T22:44:41;23.40;99.90
25320;DHT22;13256;49.012;8.610;2023-07-09T22:47:16;23.30;99.90
25320;DHT22;13256;49.012;8.610;2023-07-09T22:49:58;23.30;99.90
25320;DHT22;13256;49.012;8.610;2023-07-09T22:52:27;23.30;99.90
25320;DHT22;13256;49.012;8.610;2023-07-09T22:58:15;23.10;99.90
25320;DHT22;13256;49.012;8.610;2023-07-09T23:01:08;23.00;99.90
25320;DHT22;13256;49.012;8.610;2023-07-09T23:03:42;22.90;99.90
25320;DHT22;13256;49.012;8.610;2023-07-09T23:06:20;22.90;99.90
25320;DHT22;13256;49.012;8.610;2023-07-09T23:08:57;22.90;99.90
25320;DHT22;13256;49.012;8.610;2023-07-09T23:11:28;23.00;99.90
25320;DHT22;13256;49.012;8.610;2023-07-09T23:14:01;23.00;99.90
25320;DHT22;13256;49.012;8.610;2023-07-09T23:16:35;23.10;99.90
25320;DHT22;13256;49.012;8.610;2023-07-09T23:19:30;23.20;99.90
25320;DHT22;13256;49.012;8.610;2023-07-09T23:22:00;23.20;99.90
25320;DHT22;13256;49.012;8.610;2023-07-09T23:24:37;23.20;99.90
25320;DHT22;13256;49.012;8.610;2023-07-09T23:27:14;23.20;99.90
25320;DHT22;13256;49.012;8.610;2023-07-09T23:29:47;23.20;99.90
25320;DHT22;13256;49.012;8.610;2023-07-09T23:32:15;23.20;99.90
25320;DHT22;13256;49.012;8.610;2023-07-09T23:34:43;23.20;99.90
25320;DHT22;13256;49.012;8.610;2023-07-09T23:37:15;23.20;99.90
25320;DHT22;13256;49.012;8.610;2023-07-09T23:39:44;23.20;99.90
25320;DHT22;13256;49.012;8.610;2023-07-09T23:42:14;23.20;99.90
25320;DHT22;13256;49.012;8.610;2023-07-09T23:44:45;23.10;99.90
25320;DHT22;13256;49.012;8.610;2023-07-09T23:47:15;23.00;99.90
25320;DHT22;13256;49.012;8.610;2023-07-09T23:49:55;22.90;99.90
25320;DHT22;13256;49.012;8.610;2023-07-09T23:52:24;22.80;99.90
25320;DHT22;13256;49.012;8.610;2023-07-09T23:54:56;22.70;99.90
25320;DHT22;13256;49.012;8.610;2023-07-09T23:57:23;22.60;99.90
25320;DHT22;13256;49.012;8.610;2023-07-09T23:59:57;22.50;99.90
